sensor_id;sensor_type;location;lat;lon;timestamp;pressure;altitude;pressure_sealevel;temperature;humidity
16030;BME280;34770;49.272;11.070;2022-08-19T00:01:37;97103.41;;;21.10;100.00
16030;BME280;34770;49.272;11.070;2022-08-19T00:04:06;97102.50;;;21.13;99.63
16030;BME280;34770;49.272;11.070;2022-08-19T00:06:33;97103.44;;;21.23;99.31
16030;BME280;34770;49.272;11.070;2022-08-19T00:09:00;97100.47;;;21.13;98.92
16030;BME280;34770;49.272;11.070;2022-08-19T00:11:27;97088.63;;;21.02;98.83
16030;BME280;34770;49.272;11.070;2022-08-19T00:13:54;97083.97;;;20.95;99.84
16030;BME280;34770;49.272;11.070;2022-08-19T00:16:20;97082.81;;;20.93;100.00
16030;BME280;34770;49.272;11.070;2022-08-19T00:18:47;97080.41;;;20.91;100.00
16030;BME280;34770;49.272;11.070;2022-08-19T00:21:12;97072.38;;;20.90;100.00
16030;BME280;34770;49.272;11.070;2022-08-19T00:23:39;97083.31;;;20.87;100.00
16030;BME280;34770;49.272;11.070;2022-08-19T00:26:06;97086.50;;;20.90;100.00
16030;BME280;34770;49.272;11.070;2022-08-19T00:28:33;97093.56;;;20.81;100.00
16030;BME280;34770;49.272;11.070;2022-08-19T00:31:02;97085.63;;;20.76;100.00
16030;BME280;34770;49.272;11.070;2022-08-19T00:33:28;97090.72;;;20.65;100.00
16030;BME280;34770;49.272;11.070;2022-08-19T00:35:55;97072.25;;;20.60;100.00
16030;BME280;34770;49.272;11.070;2022-08-19T00:38:20;97087.53;;;20.63;100.00
16030;BME280;34770;49.272;11.070;2022-08-19T00:40:48;97094.06;;;20.60;100.00
16030;BME280;34770;49.272;11.070;2022-08-19T00:43:19;97106.44;;;20.66;100.00
16030;BME280;34770;49.272;11.070;2022-08-19T00:45:45;97107.31;;;20.63;100.00
16030;BME280;34770;49.272;11.070;2022-08-19T00:48:10;97114.03;;;20.69;100.00
16030;BME280;34770;49.272;11.070;2022-08-19T00:50:39;97099.13;;;20.68;100.00
16030;BME280;34770;49.272;11.070;2022-08-19T00:53:06;97090.63;;;20.68;100.00
16030;BME280;34770;49.272;11.070;2022-08-19T00:55:32;97091.88;;;20.67;100.00
16030;BME280;34770;49.272;11.070;2022-08-19T00:58:08;97086.91;;;20.55;100.00
16030;BME280;34770;49.272;11.070;2022-08-19T01:00:35;97082.66;;;20.63;100.00
16030;BME280;34770;49.272;11.070;2022-08-19T01:03:05;97078.84;;;20.53;100.00
16030;BME280;34770;49.272;11.070;2022-08-19T01:05:31;97098.25;;;20.35;100.00
16030;BME280;34770;49.272;11.070;2022-08-19T01:07:59;97099.88;;;20.52;100.00
16030;BME280;34770;49.272;11.070;2022-08-19T01:10:28;97098.84;;;20.63;100.00
16030;BME280;34770;49.272;11.070;2022-08-19T01:12:55;97084.25;;;20.64;100.00
16030;BME280;34770;49.272;11.070;2022-08-19T01:15:31;97097.59;;;20.64;100.00
16030;BME280;34770;49.272;11.070;2022-08-19T01:18:00;97093.28;;;20.59;100.00
16030;BME280;34770;49.272;11.070;2022-08-19T01:20:26;97105.53;;;20.52;100.00
16030;BME280;34770;49.272;11.070;2022-08-19T01:22:55;97108.09;;;20.47;100.00
16030;BME280;34770;49.272;11.070;2022-08-19T01:25:41;97116.81;;;20.52;100.00
16030;BME280;34770;49.272;11.070;2022-08-19T01:28:07;97118.94;;;20.48;100.00
16030;BME280;34770;49.272;11.070;2022-08-19T01:30:35;97117.94;;;20.59;100.00
16030;BME280;34770;49.272;11.070;2022-08-19T01:33:01;97122.84;;;20.75;100.00
16030;BME280;34770;49.272;11.070;2022-08-19T01:35:29;97114.81;;;20.53;100.00
16030;BME280;34770;49.272;11.070;2022-08-19T01:38:01;97114.38;;;20.54;100.00
16030;BME280;34770;49.272;11.070;2022-08-19T01:40:30;97113.09;;;20.39;100.00
16030;BME280;34770;49.272;11.070;2022-08-19T01:42:56;97114.16;;;20.45;100.00
16030;BME280;34770;49.272;11.070;2022-08-19T01:45:23;97125.44;;;20.29;100.00
16030;BME280;34770;49.272;11.070;2022-08-19T01:47:50;97136.28;;;20.30;100.00
16030;BME280;34770;49.272;11.070;2022-08-19T01:50:15;97127.75;;;20.14;100.00
16030;BME280;34770;49.272;11.070;2022-08-19T01:52:42;97143.09;;;20.33;100.00
16030;BME280;34770;49.272;11.070;2022-08-19T01:55:17;97141.72;;;20.41;100.00
16030;BME280;34770;49.272;11.070;2022-08-19T01:57:47;97135.03;;;20.51;100.00
16030;BME280;34770;49.272;11.070;2022-08-19T02:00:16;97129.22;;;20.59;100.00
16030;BME280;34770;49.272;11.070;2022-08-19T02:02:42;97120.41;;;20.36;100.00
16030;BME280;34770;49.272;11.070;2022-08-19T02:05:09;97126.97;;;20.33;100.00
16030;BME280;34770;49.272;11.070;2022-08-19T02:07:35;97124.72;;;20.24;100.00
16030;BME280;34770;49.272;11.070;2022-08-19T02:10:09;97132.78;;;20.06;100.00
16030;BME280;34770;49.272;11.070;2022-08-19T02:12:35;97138.41;;;20.26;100.00
16030;BME280;34770;49.272;11.070;2022-08-19T02:15:03;97136.44;;;20.23;100.00
16030;BME280;34770;49.272;11.070;2022-08-19T02:17:29;97165.00;;;20.29;100.00
16030;BME280;34770;49.272;11.070;2022-08-19T02:19:55;97160.06;;;20.33;100.00
16030;BME280;34770;49.272;11.070;2022-08-19T02:22:21;97167.22;;;20.37;100.00
16030;BME280;34770;49.272;11.070;2022-08-19T02:24:47;97167.78;;;20.49;100.00
16030;BME280;34770;49.272;11.070;2022-08-19T02:27:13;97172.44;;;20.39;100.00
16030;BME280;34770;49.272;11.070;2022-08-19T02:29:38;97178.59;;;20.14;100.00
16030;BME280;34770;49.272;11.070;2022-08-19T02:32:04;97178.09;;;20.39;100.00
16030;BME280;34770;49.272;11.070;2022-08-19T02:34:29;97184.41;;;20.47;100.00
16030;BME280;34770;49.272;11.070;2022-08-19T02:36:55;97180.75;;;20.46;100.00
16030;BME280;34770;49.272;11.070;2022-08-19T02:39:20;97188.81;;;20.48;100.00
16030;BME280;34770;49.272;11.070;2022-08-19T02:41:46;97182.13;;;20.38;100.00
16030;BME280;34770;49.272;11.070;2022-08-19T02:44:11;97178.69;;;20.30;100.00
16030;BME280;34770;49.272;11.070;2022-08-19T02:46:37;97170.84;;;20.38;100.00
16030;BME280;34770;49.272;11.070;2022-08-19T02:49:06;97164.69;;;20.43;100.00
16030;BME280;34770;49.272;11.070;2022-08-19T02:51:38;97173.81;;;20.51;100.00
16030;BME280;34770;49.272;11.070;2022-08-19T02:54:05;97172.28;;;20.46;100.00
16030;BME280;34770;49.272;11.070;2022-08-19T02:56:34;97171.66;;;20.38;100.00
16030;BME280;34770;49.272;11.070;2022-08-19T02:59:00;97165.84;;;20.25;100.00
16030;BME280;34770;49.272;11.070;2022-08-19T03:01:30;97158.91;;;20.10;100.00
16030;BME280;34770;49.272;11.070;2022-08-19T03:03:57;97163.78;;;20.30;100.00
16030;BME280;34770;49.272;11.070;2022-08-19T03:06:23;97155.47;;;20.39;100.00
16030;BME280;34770;49.272;11.070;2022-08-19T03:08:49;97152.53;;;20.26;100.00
16030;BME280;34770;49.272;11.070;2022-08-19T03:11:23;97147.91;;;20.36;100.00
16030;BME280;34770;49.272;11.070;2022-08-19T03:13:49;97155.28;;;20.30;100.00
16030;BME280;34770;49.272;11.070;2022-08-19T03:16:16;97149.56;;;20.33;100.00
16030;BME280;34770;49.272;11.070;2022-08-19T03:18:42;97137.56;;;20.09;100.00
16030;BME280;34770;49.272;11.070;2022-08-19T03:21:08;97128.06;;;20.19;100.00
16030;BME280;34770;49.272;11.070;2022-08-19T03:23:34;97136.00;;;20.24;100.00
16030;BME280;34770;49.272;11.070;2022-08-19T03:26:03;97137.25;;;20.23;100.00
16030;BME280;34770;49.272;11.070;2022-08-19T03:28:30;97121.03;;;20.07;100.00
16030;BME280;34770;49.272;11.070;2022-08-19T03:31:09;97123.47;;;20.25;100.00
16030;BME280;34770;49.272;11.070;2022-08-19T03:33:35;97123.63;;;20.38;100.00
16030;BME280;34770;49.272;11.070;2022-08-19T03:36:13;97131.72;;;20.36;100.00
16030;BME280;34770;49.272;11.070;2022-08-19T03:38:45;97130.50;;;20.37;100.00
16030;BME280;34770;49.272;11.070;2022-08-19T03:41:17;97118.81;;;20.35;100.00
16030;BME280;34770;49.272;11.070;2022-08-19T03:43:44;97117.97;;;20.38;100.00
16030;BME280;34770;49.272;11.070;2022-08-19T03:46:19;97128.94;;;20.16;100.00
16030;BME280;34770;49.272;11.070;2022-08-19T03:48:46;97131.75;;;20.16;100.00
16030;BME280;34770;49.272;11.070;2022-08-19T03:51:18;97131.91;;;20.09;100.00
16030;BME280;34770;49.272;11.070;2022-08-19T03:53:45;97123.84;;;20.07;100.00
16030;BME280;34770;49.272;11.070;2022-08-19T03:56:10;97119.00;;;19.88;100.00
16030;BME280;34770;49.272;11.070;2022-08-19T03:58:36;97115.59;;;19.97;100.00
16030;BME280;34770;49.272;11.070;2022-08-19T04:01:07;97097.50;;;19.74;100.00
16030;BME280;34770;49.272;11.070;2022-08-19T04:03:33;97102.31;;;19.97;100.00
16030;BME280;34770;49.272;11.070;2022-08-19T04:05:59;97109.88;;;20.00;100.00
16030;BME280;34770;49.272;11.070;2022-08-19T04:08:24;97123.22;;;20.00;100.00
16030;BME280;34770;49.272;11.070;2022-08-19T04:10:50;97130.38;;;19.84;100.00
16030;BME280;34770;49.272;11.070;2022-08-19T04:13:17;97129.38;;;19.95;100.00
16030;BME280;34770;49.272;11.070;2022-08-19T04:15:44;97134.22;;;19.94;100.00
16030;BME280;34770;49.272;11.070;2022-08-19T04:18:10;97135.03;;;19.95;100.00
16030;BME280;34770;49.272;11.070;2022-08-19T04:20:41;97151.97;;;19.95;100.00
16030;BME280;34770;49.272;11.070;2022-08-19T04:23:06;97140.59;;;19.98;100.00
16030;BME280;34770;49.272;11.070;2022-08-19T04:25:50;97142.34;;;19.92;100.00
16030;BME280;34770;49.272;11.070;2022-08-19T04:28:15;97144.78;;;19.90;100.00
16030;BME280;34770;49.272;11.070;2022-08-19T04:30:43;97164.09;;;19.71;100.00
16030;BME280;34770;49.272;11.070;2022-08-19T04:33:10;97171.50;;;19.85;100.00
16030;BME280;34770;49.272;11.070;2022-08-19T04:35:40;97180.47;;;20.00;100.00
16030;BME280;34770;49.272;11.070;2022-08-19T04:38:07;97178.53;;;20.17;100.00
16030;BME280;34770;49.272;11.070;2022-08-19T04:40:33;97185.44;;;20.16;100.00
16030;BME280;34770;49.272;11.070;2022-08-19T04:43:17;97183.69;;;20.22;100.00
16030;BME280;34770;49.272;11.070;2022-08-19T04:45:44;97192.44;;;20.08;100.00
16030;BME280;34770;49.272;11.070;2022-08-19T04:48:11;97198.47;;;20.30;100.00
16030;BME280;34770;49.272;11.070;2022-08-19T04:50:40;97207.66;;;20.34;100.00
16030;BME280;34770;49.272;11.070;2022-08-19T04:53:06;97205.13;;;20.40;100.00
16030;BME280;34770;49.272;11.070;2022-08-19T04:55:34;97206.19;;;20.46;100.00
16030;BME280;34770;49.272;11.070;2022-08-19T04:58:00;97198.75;;;20.36;100.00
16030;BME280;34770;49.272;11.070;2022-08-19T05:00:27;97208.16;;;20.49;100.00
16030;BME280;34770;49.272;11.070;2022-08-19T05:02:53;97212.84;;;20.56;100.00
16030;BME280;34770;49.272;11.070;2022-08-19T05:05:18;97221.31;;;20.56;100.00
16030;BME280;34770;49.272;11.070;2022-08-19T05:07:47;97225.97;;;20.46;100.00
16030;BME280;34770;49.272;11.070;2022-08-19T05:10:12;97224.78;;;20.27;100.00
16030;BME280;34770;49.272;11.070;2022-08-19T05:12:38;97226.63;;;20.34;100.00
16030;BME280;34770;49.272;11.070;2022-08-19T05:15:05;97222.44;;;20.42;100.00
16030;BME280;34770;49.272;11.070;2022-08-19T05:17:34;97218.44;;;19.99;100.00
16030;BME280;34770;49.272;11.070;2022-08-19T05:19:59;97228.38;;;20.28;100.00
16030;BME280;34770;49.272;11.070;2022-08-19T05:22:45;97240.53;;;20.24;100.00
16030;BME280;34770;49.272;11.070;2022-08-19T05:25:14;97247.28;;;20.11;100.00
16030;BME280;34770;49.272;11.070;2022-08-19T05:27:41;97244.44;;;20.11;100.00
16030;BME280;34770;49.272;11.070;2022-08-19T05:30:10;97238.00;;;20.30;100.00
16030;BME280;34770;49.272;11.070;2022-08-19T05:32:37;97233.75;;;20.42;100.00
16030;BME280;34770;49.272;11.070;2022-08-19T05:35:03;97239.69;;;20.48;100.00
16030;BME280;34770;49.272;11.070;2022-08-19T05:37:28;97240.47;;;20.48;100.00
16030;BME280;34770;49.272;11.070;2022-08-19T05:39:54;97248.66;;;20.43;100.00
16030;BME280;34770;49.272;11.070;2022-08-19T05:42:20;97248.09;;;20.51;100.00
16030;BME280;34770;49.272;11.070;2022-08-19T05:44:47;97246.75;;;20.56;100.00
16030;BME280;34770;49.272;11.070;2022-08-19T05:47:15;97239.03;;;20.60;100.00
16030;BME280;34770;49.272;11.070;2022-08-19T05:49:42;97235.16;;;20.70;100.00
16030;BME280;34770;49.272;11.070;2022-08-19T05:52:10;97225.69;;;20.81;100.00
16030;BME280;34770;49.272;11.070;2022-08-19T05:54:39;97229.13;;;20.72;100.00
16030;BME280;34770;49.272;11.070;2022-08-19T05:57:08;97217.34;;;20.74;100.00
16030;BME280;34770;49.272;11.070;2022-08-19T05:59:34;97225.03;;;20.73;100.00
16030;BME280;34770;49.272;11.070;2022-08-19T06:02:01;97236.56;;;20.82;100.00
16030;BME280;34770;49.272;11.070;2022-08-19T06:04:27;97233.94;;;20.92;100.00
16030;BME280;34770;49.272;11.070;2022-08-19T06:06:53;97238.84;;;20.87;100.00
16030;BME280;34770;49.272;11.070;2022-08-19T06:09:20;97240.81;;;20.91;100.00
16030;BME280;34770;49.272;11.070;2022-08-19T06:11:54;97245.25;;;20.92;100.00
16030;BME280;34770;49.272;11.070;2022-08-19T06:14:22;97234.34;;;20.90;100.00
16030;BME280;34770;49.272;11.070;2022-08-19T06:16:48;97235.09;;;20.74;100.00
16030;BME280;34770;49.272;11.070;2022-08-19T06:19:17;97221.63;;;20.82;100.00
16030;BME280;34770;49.272;11.070;2022-08-19T06:21:44;97225.69;;;20.61;100.00
16030;BME280;34770;49.272;11.070;2022-08-19T06:24:12;97226.84;;;20.83;100.00
16030;BME280;34770;49.272;11.070;2022-08-19T06:26:41;97222.78;;;20.84;100.00
16030;BME280;34770;49.272;11.070;2022-08-19T06:29:08;97223.53;;;21.05;100.00
16030;BME280;34770;49.272;11.070;2022-08-19T06:31:35;97217.44;;;21.23;99.83
16030;BME280;34770;49.272;11.070;2022-08-19T06:34:04;97221.75;;;21.11;99.39
16030;BME280;34770;49.272;11.070;2022-08-19T06:36:33;97207.72;;;21.41;97.57
16030;BME280;34770;49.272;11.070;2022-08-19T06:39:01;97201.63;;;21.59;95.90
16030;BME280;34770;49.272;11.070;2022-08-19T06:41:28;97223.91;;;21.57;96.28
16030;BME280;34770;49.272;11.070;2022-08-19T06:43:54;97223.50;;;21.58;95.81
16030;BME280;34770;49.272;11.070;2022-08-19T06:46:20;97216.59;;;21.59;95.29
16030;BME280;34770;49.272;11.070;2022-08-19T06:48:47;97208.53;;;21.58;94.12
16030;BME280;34770;49.272;11.070;2022-08-19T06:51:14;97228.84;;;21.86;94.14
16030;BME280;34770;49.272;11.070;2022-08-19T06:53:43;97233.19;;;21.74;93.50
16030;BME280;34770;49.272;11.070;2022-08-19T06:56:12;97241.50;;;21.81;92.42
16030;BME280;34770;49.272;11.070;2022-08-19T06:58:37;97246.00;;;21.95;93.28
16030;BME280;34770;49.272;11.070;2022-08-19T07:01:04;97254.59;;;21.75;93.09
16030;BME280;34770;49.272;11.070;2022-08-19T07:03:31;97255.94;;;21.70;92.71
16030;BME280;34770;49.272;11.070;2022-08-19T07:06:02;97262.31;;;21.58;94.08
16030;BME280;34770;49.272;11.070;2022-08-19T07:08:28;97261.78;;;21.79;93.14
16030;BME280;34770;49.272;11.070;2022-08-19T07:10:53;97245.50;;;21.67;93.31
16030;BME280;34770;49.272;11.070;2022-08-19T07:13:18;97266.66;;;21.79;92.71
16030;BME280;34770;49.272;11.070;2022-08-19T07:15:44;97270.34;;;21.76;93.42
16030;BME280;34770;49.272;11.070;2022-08-19T07:18:11;97273.28;;;21.72;92.48
16030;BME280;34770;49.272;11.070;2022-08-19T07:20:37;97278.06;;;21.75;92.36
16030;BME280;34770;49.272;11.070;2022-08-19T07:23:03;97269.91;;;21.77;91.47
16030;BME280;34770;49.272;11.070;2022-08-19T07:25:28;97258.22;;;21.26;94.71
16030;BME280;34770;49.272;11.070;2022-08-19T07:27:54;97272.44;;;21.22;94.61
16030;BME280;34770;49.272;11.070;2022-08-19T07:30:19;97265.09;;;21.25;95.66
16030;BME280;34770;49.272;11.070;2022-08-19T07:32:45;97274.75;;;21.27;95.15
16030;BME280;34770;49.272;11.070;2022-08-19T07:35:10;97279.25;;;21.25;94.31
16030;BME280;34770;49.272;11.070;2022-08-19T07:37:36;97278.88;;;21.06;97.49
16030;BME280;34770;49.272;11.070;2022-08-19T07:40:05;97272.03;;;21.40;96.51
16030;BME280;34770;49.272;11.070;2022-08-19T07:42:30;97268.84;;;21.55;95.91
16030;BME280;34770;49.272;11.070;2022-08-19T07:44:56;97271.22;;;21.56;94.75
16030;BME280;34770;49.272;11.070;2022-08-19T07:47:22;97264.94;;;21.48;94.47
16030;BME280;34770;49.272;11.070;2022-08-19T07:49:47;97266.44;;;21.53;94.65
16030;BME280;34770;49.272;11.070;2022-08-19T07:52:13;97259.47;;;21.41;95.43
16030;BME280;34770;49.272;11.070;2022-08-19T07:54:40;97263.34;;;21.47;96.00
16030;BME280;34770;49.272;11.070;2022-08-19T07:57:06;97265.88;;;21.09;96.71
16030;BME280;34770;49.272;11.070;2022-08-19T07:59:32;97253.91;;;21.01;98.21
16030;BME280;34770;49.272;11.070;2022-08-19T08:01:58;97256.00;;;21.33;97.11
16030;BME280;34770;49.272;11.070;2022-08-19T08:04:26;97253.31;;;21.10;98.18
16030;BME280;34770;49.272;11.070;2022-08-19T08:07:10;97272.31;;;21.09;97.20
16030;BME280;34770;49.272;11.070;2022-08-19T08:09:54;97270.38;;;21.23;97.38
16030;BME280;34770;49.272;11.070;2022-08-19T08:12:26;97263.94;;;21.22;95.88
16030;BME280;34770;49.272;11.070;2022-08-19T08:14:56;97260.06;;;21.32;96.75
16030;BME280;34770;49.272;11.070;2022-08-19T08:17:25;97268.75;;;21.42;95.89
16030;BME280;34770;49.272;11.070;2022-08-19T08:19:52;97258.84;;;21.50;96.00
16030;BME280;34770;49.272;11.070;2022-08-19T08:22:21;97250.81;;;21.48;96.42
16030;BME280;34770;49.272;11.070;2022-08-19T08:25:18;97252.81;;;21.48;96.28
16030;BME280;34770;49.272;11.070;2022-08-19T08:27:45;97248.38;;;21.47;96.55
16030;BME280;34770;49.272;11.070;2022-08-19T08:30:14;97257.94;;;21.53;96.46
16030;BME280;34770;49.272;11.070;2022-08-19T08:32:41;97258.41;;;21.51;95.97
16030;BME280;34770;49.272;11.070;2022-08-19T08:35:08;97264.13;;;21.48;96.29
16030;BME280;34770;49.272;11.070;2022-08-19T08:37:35;97257.06;;;21.56;96.07
16030;BME280;34770;49.272;11.070;2022-08-19T08:40:59;97261.56;;;21.37;96.32
16030;BME280;34770;49.272;11.070;2022-08-19T08:43:03;97267.75;;;21.32;96.55
16030;BME280;34770;49.272;11.070;2022-08-19T08:45:32;97268.13;;;21.34;96.56
16030;BME280;34770;49.272;11.070;2022-08-19T08:48:04;97269.59;;;21.22;98.13
16030;BME280;34770;49.272;11.070;2022-08-19T08:50:38;97266.31;;;21.07;98.30
16030;BME280;34770;49.272;11.070;2022-08-19T08:53:05;97258.22;;;21.26;98.60
16030;BME280;34770;49.272;11.070;2022-08-19T08:55:32;97245.66;;;21.27;97.01
16030;BME280;34770;49.272;11.070;2022-08-19T08:58:03;97259.81;;;20.90;98.74
16030;BME280;34770;49.272;11.070;2022-08-19T09:02:59;97263.22;;;21.18;97.76
16030;BME280;34770;49.272;11.070;2022-08-19T09:05:39;97264.81;;;21.19;97.04
16030;BME280;34770;49.272;11.070;2022-08-19T09:08:37;97254.22;;;21.40;97.09
16030;BME280;34770;49.272;11.070;2022-08-19T09:11:14;97258.44;;;21.68;95.36
16030;BME280;34770;49.272;11.070;2022-08-19T09:14:05;97269.81;;;21.81;94.15
16030;BME280;34770;49.272;11.070;2022-08-19T09:16:33;97269.56;;;21.59;95.60
16030;BME280;34770;49.272;11.070;2022-08-19T09:19:04;97271.63;;;21.58;95.28
16030;BME280;34770;49.272;11.070;2022-08-19T09:21:30;97274.13;;;21.52;95.58
16030;BME280;34770;49.272;11.070;2022-08-19T09:23:56;97276.09;;;21.56;95.56
16030;BME280;34770;49.272;11.070;2022-08-19T09:26:23;97268.19;;;21.47;95.31
16030;BME280;34770;49.272;11.070;2022-08-19T09:28:51;97278.91;;;21.39;96.10
16030;BME280;34770;49.272;11.070;2022-08-19T09:31:20;97273.88;;;21.47;95.96
16030;BME280;34770;49.272;11.070;2022-08-19T09:33:46;97273.44;;;21.48;95.94
16030;BME280;34770;49.272;11.070;2022-08-19T09:36:14;97263.69;;;21.33;97.44
16030;BME280;34770;49.272;11.070;2022-08-19T09:38:40;97265.63;;;21.36;97.49
16030;BME280;34770;49.272;11.070;2022-08-19T09:41:28;97259.81;;;21.43;96.22
16030;BME280;34770;49.272;11.070;2022-08-19T09:43:57;97277.56;;;21.27;96.77
16030;BME280;34770;49.272;11.070;2022-08-19T09:46:28;97271.66;;;21.38;96.13
16030;BME280;34770;49.272;11.070;2022-08-19T09:48:54;97273.09;;;21.46;95.21
16030;BME280;34770;49.272;11.070;2022-08-19T09:51:24;97279.28;;;21.58;94.46
16030;BME280;34770;49.272;11.070;2022-08-19T09:53:51;97288.09;;;21.27;95.36
16030;BME280;34770;49.272;11.070;2022-08-19T09:56:20;97285.34;;;21.23;95.65
16030;BME280;34770;49.272;11.070;2022-08-19T09:58:47;97282.94;;;21.05;97.81
16030;BME280;34770;49.272;11.070;2022-08-19T10:01:25;97296.19;;;21.08;96.17
16030;BME280;34770;49.272;11.070;2022-08-19T10:03:53;97290.09;;;21.10;96.60
16030;BME280;34770;49.272;11.070;2022-08-19T10:06:23;97278.13;;;21.02;97.08
16030;BME280;34770;49.272;11.070;2022-08-19T10:08:51;97291.50;;;21.01;97.13
16030;BME280;34770;49.272;11.070;2022-08-19T10:11:19;97288.75;;;20.98;97.98
16030;BME280;34770;49.272;11.070;2022-08-19T10:13:45;97292.13;;;21.09;96.99
16030;BME280;34770;49.272;11.070;2022-08-19T10:16:17;97283.00;;;21.01;96.71
16030;BME280;34770;49.272;11.070;2022-08-19T10:18:44;97292.66;;;21.04;96.72
16030;BME280;34770;49.272;11.070;2022-08-19T10:21:23;97282.59;;;21.19;97.03
16030;BME280;34770;49.272;11.070;2022-08-19T10:23:51;97288.44;;;21.12;96.63
16030;BME280;34770;49.272;11.070;2022-08-19T10:27:13;97286.75;;;21.15;96.11
16030;BME280;34770;49.272;11.070;2022-08-19T10:29:20;97286.13;;;21.07;95.89
16030;BME280;34770;49.272;11.070;2022-08-19T10:31:45;97302.88;;;21.34;95.57
16030;BME280;34770;49.272;11.070;2022-08-19T10:34:12;97292.72;;;21.54;95.38
16030;BME280;34770;49.272;11.070;2022-08-19T10:36:37;97300.72;;;21.59;93.75
16030;BME280;34770;49.272;11.070;2022-08-19T10:39:06;97278.38;;;21.44;93.06
16030;BME280;34770;49.272;11.070;2022-08-19T10:41:34;97290.06;;;21.46;94.43
16030;BME280;34770;49.272;11.070;2022-08-19T10:44:04;97307.06;;;21.46;94.88
16030;BME280;34770;49.272;11.070;2022-08-19T10:46:31;97305.38;;;21.49;94.63
16030;BME280;34770;49.272;11.070;2022-08-19T10:48:58;97306.16;;;21.49;94.96
16030;BME280;34770;49.272;11.070;2022-08-19T10:51:23;97294.91;;;21.29;95.67
16030;BME280;34770;49.272;11.070;2022-08-19T10:54:07;97304.75;;;21.41;95.16
16030;BME280;34770;49.272;11.070;2022-08-19T10:56:33;97311.22;;;21.05;97.47
16030;BME280;34770;49.272;11.070;2022-08-19T10:59:23;97307.19;;;21.23;97.08
16030;BME280;34770;49.272;11.070;2022-08-19T11:01:50;97313.66;;;21.23;97.35
16030;BME280;34770;49.272;11.070;2022-08-19T11:04:17;97311.75;;;21.16;97.71
16030;BME280;34770;49.272;11.070;2022-08-19T11:06:45;97312.69;;;20.73;99.49
16030;BME280;34770;49.272;11.070;2022-08-19T11:09:16;97305.72;;;20.98;99.55
16030;BME280;34770;49.272;11.070;2022-08-19T11:11:42;97304.13;;;20.97;98.99
16030;BME280;34770;49.272;11.070;2022-08-19T11:14:10;97308.53;;;20.98;99.81
16030;BME280;34770;49.272;11.070;2022-08-19T11:16:35;97300.28;;;21.07;98.98
16030;BME280;34770;49.272;11.070;2022-08-19T11:19:01;97298.81;;;20.99;99.56
16030;BME280;34770;49.272;11.070;2022-08-19T11:21:39;97296.00;;;20.99;100.00
16030;BME280;34770;49.272;11.070;2022-08-19T11:24:14;97303.34;;;21.13;100.00
16030;BME280;34770;49.272;11.070;2022-08-19T11:26:41;97309.97;;;20.66;100.00
16030;BME280;34770;49.272;11.070;2022-08-19T11:29:08;97310.25;;;20.71;100.00
16030;BME280;34770;49.272;11.070;2022-08-19T11:31:38;97307.94;;;20.66;100.00
16030;BME280;34770;49.272;11.070;2022-08-19T11:34:06;97304.66;;;20.28;100.00
16030;BME280;34770;49.272;11.070;2022-08-19T11:36:32;97302.16;;;20.33;100.00
16030;BME280;34770;49.272;11.070;2022-08-19T11:38:58;97299.31;;;20.33;100.00
16030;BME280;34770;49.272;11.070;2022-08-19T11:41:25;97302.16;;;20.33;100.00
16030;BME280;34770;49.272;11.070;2022-08-19T11:43:51;97306.47;;;20.38;100.00
16030;BME280;34770;49.272;11.070;2022-08-19T11:46:19;97298.16;;;20.31;100.00
16030;BME280;34770;49.272;11.070;2022-08-19T11:48:45;97295.53;;;20.40;100.00
16030;BME280;34770;49.272;11.070;2022-08-19T11:51:21;97296.28;;;20.44;100.00
16030;BME280;34770;49.272;11.070;2022-08-19T11:56:13;97300.53;;;20.52;100.00
16030;BME280;34770;49.272;11.070;2022-08-19T11:58:39;97300.00;;;20.61;100.00
16030;BME280;34770;49.272;11.070;2022-08-19T12:01:12;97299.91;;;20.65;100.00
16030;BME280;34770;49.272;11.070;2022-08-19T12:03:39;97305.50;;;20.68;100.00
16030;BME280;34770;49.272;11.070;2022-08-19T12:06:10;97303.09;;;20.67;100.00
16030;BME280;34770;49.272;11.070;2022-08-19T12:08:38;97291.06;;;20.63;100.00
16030;BME280;34770;49.272;11.070;2022-08-19T12:11:04;97296.50;;;20.33;100.00
16030;BME280;34770;49.272;11.070;2022-08-19T12:13:33;97285.13;;;20.37;100.00
16030;BME280;34770;49.272;11.070;2022-08-19T12:15:58;97284.03;;;20.51;100.00
16030;BME280;34770;49.272;11.070;2022-08-19T12:18:24;97288.16;;;20.46;100.00
16030;BME280;34770;49.272;11.070;2022-08-19T12:20:51;97284.94;;;20.24;100.00
16030;BME280;34770;49.272;11.070;2022-08-19T12:23:17;97281.94;;;20.35;100.00
16030;BME280;34770;49.272;11.070;2022-08-19T12:25:45;97279.41;;;20.40;100.00
16030;BME280;34770;49.272;11.070;2022-08-19T12:28:21;97284.31;;;20.56;100.00
16030;BME280;34770;49.272;11.070;2022-08-19T12:30:48;97289.19;;;20.36;100.00
16030;BME280;34770;49.272;11.070;2022-08-19T12:33:13;97284.75;;;20.35;100.00
16030;BME280;34770;49.272;11.070;2022-08-19T12:35:42;97293.25;;;20.11;100.00
16030;BME280;34770;49.272;11.070;2022-08-19T12:38:10;97282.47;;;20.06;100.00
16030;BME280;34770;49.272;11.070;2022-08-19T12:40:35;97283.81;;;19.74;100.00
16030;BME280;34770;49.272;11.070;2022-08-19T12:43:00;97297.03;;;19.77;100.00
16030;BME280;34770;49.272;11.070;2022-08-19T12:45:26;97291.69;;;19.86;100.00
16030;BME280;34770;49.272;11.070;2022-08-19T12:47:51;97292.41;;;19.67;100.00
16030;BME280;34770;49.272;11.070;2022-08-19T12:50:18;97296.56;;;19.58;100.00
16030;BME280;34770;49.272;11.070;2022-08-19T12:52:46;97301.16;;;19.72;100.00
16030;BME280;34770;49.272;11.070;2022-08-19T12:55:13;97310.00;;;19.74;100.00